createdAt,value
2022-09-07T00:00:22.609Z,17.71
2022-09-07T00:02:54.514Z,17.71
2022-09-07T00:05:26.140Z,17.67
2022-09-07T00:07:58.022Z,17.64
2022-09-07T00:10:29.514Z,17.57
2022-09-07T00:13:01.482Z,17.45
2022-09-07T00:15:33.001Z,17.43
2022-09-07T00:18:04.521Z,17.39
2022-09-07T00:20:36.079Z,17.32
2022-09-07T00:23:07.864Z,17.29
2022-09-07T00:25:39.596Z,17.21
2022-09-07T00:28:11.515Z,17.15
2022-09-07T00:30:43.484Z,17.05
2022-09-07T00:33:14.980Z,17.07
2022-09-07T00:35:46.984Z,17.02
2022-09-07T00:38:18.504Z,17.00
2022-09-07T00:40:50.390Z,16.92
2022-09-07T00:43:21.968Z,16.91
2022-09-07T00:45:53.972Z,16.87
2022-09-07T00:48:25.475Z,16.85
2022-09-07T00:50:57.416Z,16.77
2022-09-07T00:53:28.922Z,16.68
2022-09-07T00:56:00.803Z,16.64
2022-09-07T00:58:32.415Z,16.63
2022-09-07T01:01:03.932Z,16.55
2022-09-07T01:03:35.444Z,16.54
2022-09-07T01:06:07.371Z,16.54
2022-09-07T01:08:38.868Z,16.55
2022-09-07T01:11:10.762Z,16.48
2022-09-07T01:13:42.250Z,16.46
2022-09-07T01:16:14.260Z,16.43
2022-09-07T01:18:45.805Z,16.37
2022-09-07T01:21:17.630Z,16.36
2022-09-07T01:23:49.127Z,16.31
2022-09-07T01:26:21.201Z,16.27
2022-09-07T01:28:52.714Z,16.24
2022-09-07T01:31:24.596Z,16.20
2022-09-07T01:33:56.271Z,16.17
2022-09-07T01:36:28.199Z,16.15
2022-09-07T01:38:59.710Z,16.13
2022-09-07T01:41:31.564Z,16.09
2022-09-07T01:44:03.128Z,16.05
2022-09-07T01:46:34.994Z,15.98
2022-09-07T01:49:06.559Z,16.00
2022-09-07T01:51:38.460Z,15.99
2022-09-07T01:54:09.965Z,15.94
2022-09-07T01:56:41.845Z,15.94
2022-09-07T01:59:13.346Z,15.92
2022-09-07T02:01:45.315Z,15.86
2022-09-07T02:04:16.916Z,15.86
2022-09-07T02:06:48.605Z,15.82
2022-09-07T02:09:20.195Z,15.80
2022-09-07T02:11:51.984Z,15.78
2022-09-07T02:14:23.491Z,15.76
2022-09-07T02:16:55.459Z,15.72
2022-09-07T02:19:26.960Z,15.69
2022-09-07T02:21:58.794Z,15.64
2022-09-07T02:24:31.112Z,15.65
2022-09-07T02:27:02.922Z,15.67
2022-09-07T02:29:34.472Z,15.62
2022-09-07T02:32:06.308Z,15.59
2022-09-07T02:34:37.814Z,15.55
2022-09-07T02:37:09.627Z,15.55
2022-09-07T02:39:41.229Z,15.49
2022-09-07T02:42:13.140Z,15.42
2022-09-07T02:44:46.479Z,15.40
2022-09-07T02:47:18.340Z,15.40
2022-09-07T02:49:50.246Z,15.38
2022-09-07T02:52:21.741Z,15.38
2022-09-07T02:54:53.663Z,15.35
2022-09-07T02:57:25.156Z,15.35
2022-09-07T02:59:57.032Z,15.32
2022-09-07T03:02:28.641Z,15.27
2022-09-07T03:05:00.483Z,15.25
2022-09-07T03:07:34.613Z,15.25
2022-09-07T03:10:07.858Z,15.23
2022-09-07T03:12:39.752Z,15.15
2022-09-07T03:15:11.869Z,15.15
2022-09-07T03:17:43.412Z,15.16
2022-09-07T03:20:16.803Z,15.13
2022-09-07T03:22:48.290Z,15.11
2022-09-07T03:25:19.831Z,15.05
2022-09-07T03:27:51.364Z,15.08
2022-09-07T03:30:24.168Z,15.02
2022-09-07T03:32:55.665Z,15.06
2022-09-07T03:35:27.498Z,15.02
2022-09-07T03:37:59.016Z,15.00
2022-09-07T03:40:30.885Z,14.97
2022-09-07T03:43:02.482Z,14.98
2022-09-07T03:45:34.424Z,14.93
2022-09-07T03:48:05.945Z,14.90
2022-09-07T03:50:37.891Z,14.87
2022-09-07T03:53:09.390Z,14.88
2022-09-07T03:55:41.270Z,14.86
2022-09-07T03:58:12.853Z,14.80
2022-09-07T04:00:44.757Z,14.83
2022-09-07T04:03:16.243Z,14.79
2022-09-07T04:05:48.055Z,14.80
2022-09-07T04:08:19.546Z,14.82
2022-09-07T04:10:51.336Z,14.84
2022-09-07T04:13:22.854Z,14.84
2022-09-07T04:15:54.665Z,14.82
2022-09-07T04:18:26.179Z,14.80
2022-09-07T04:20:58.025Z,14.80
2022-09-07T04:23:30.010Z,14.81
2022-09-07T04:26:01.556Z,14.76
2022-09-07T04:28:33.053Z,14.75
2022-09-07T04:31:05.116Z,14.77
2022-09-07T04:33:36.815Z,14.74
2022-09-07T04:36:08.652Z,14.77
2022-09-07T04:38:40.212Z,14.72
2022-09-07T04:41:12.115Z,14.66
2022-09-07T04:43:43.614Z,14.71
2022-09-07T04:46:15.474Z,14.72
2022-09-07T04:48:47.353Z,14.71
2022-09-07T04:51:18.877Z,14.76
2022-09-07T04:53:50.902Z,14.74
2022-09-07T04:56:22.481Z,14.75
2022-09-07T04:58:54.606Z,14.82
2022-09-07T05:01:26.335Z,14.80
2022-09-07T05:03:58.299Z,14.83
2022-09-07T05:06:30.055Z,14.87
2022-09-07T05:09:02.152Z,14.93
2022-09-07T05:11:33.697Z,14.98
2022-09-07T05:14:05.636Z,15.01
2022-09-07T05:16:37.230Z,14.93
2022-09-07T05:19:09.438Z,15.02
2022-09-07T05:21:40.982Z,15.09
2022-09-07T05:24:12.878Z,15.25
2022-09-07T05:26:44.432Z,15.22
2022-09-07T05:32:08.245Z,15.40
2022-09-07T05:34:40.116Z,15.37
2022-09-07T05:37:11.712Z,15.48
2022-09-07T05:39:44.397Z,15.61
2022-09-07T05:42:16.059Z,15.61
2022-09-07T05:44:48.149Z,15.72
2022-09-07T05:47:19.726Z,15.83
2022-09-07T05:49:53.000Z,15.80
2022-09-07T05:52:28.774Z,15.99
2022-09-07T05:55:19.280Z,16.02
2022-09-07T05:57:52.538Z,16.21
2022-09-07T06:00:24.251Z,16.24
2022-09-07T06:02:56.389Z,16.34
2022-09-07T06:05:27.931Z,16.51
2022-09-07T06:07:59.755Z,16.63
2022-09-07T06:10:47.375Z,16.84
2022-09-07T06:13:19.425Z,16.90
2022-09-07T06:15:50.996Z,16.95
2022-09-07T06:18:22.836Z,17.10
2022-09-07T06:20:54.409Z,17.24
2022-09-07T06:23:25.953Z,17.43
2022-09-07T06:25:57.460Z,17.58
2022-09-07T06:28:29.459Z,17.65
2022-09-07T06:31:01.065Z,17.71
2022-09-07T06:33:32.790Z,17.67
2022-09-07T06:36:04.575Z,17.60
2022-09-07T06:38:37.299Z,17.62
2022-09-07T06:44:00.639Z,17.71
2022-09-07T06:49:24.031Z,17.75
2022-09-07T06:51:55.658Z,17.59
2022-09-07T06:57:19.450Z,18.01
2022-09-07T06:59:50.991Z,18.10
2022-09-07T07:02:22.892Z,18.42
2022-09-07T07:04:54.437Z,18.77
2022-09-07T07:07:26.319Z,18.53
2022-09-07T07:09:57.842Z,18.82
2022-09-07T07:15:15.044Z,19.29
2022-09-07T07:17:51.952Z,19.40
2022-09-07T07:20:27.573Z,19.75
2022-09-07T07:22:59.434Z,19.88
2022-09-07T07:25:30.985Z,19.75
2022-09-07T07:30:54.627Z,20.13
2022-09-07T07:33:26.184Z,20.55
2022-09-07T07:35:57.725Z,20.95
2022-09-07T07:44:13.293Z,20.83
2022-09-07T07:46:45.111Z,21.19
2022-09-07T07:49:16.701Z,20.79
2022-09-07T07:54:39.729Z,21.32
2022-09-07T07:57:12.162Z,21.45
2022-09-07T07:59:43.659Z,21.48
2022-09-07T08:02:15.231Z,21.59
2022-09-07T08:04:46.848Z,21.85
2022-09-07T08:07:19.531Z,21.74
2022-09-07T08:09:51.084Z,22.04
2022-09-07T08:12:26.601Z,21.99
2022-09-07T08:15:00.726Z,22.25
2022-09-07T08:17:32.718Z,22.51
2022-09-07T08:20:04.248Z,22.44
2022-09-07T08:22:36.335Z,22.53
2022-09-07T08:25:07.838Z,22.71
2022-09-07T08:27:39.539Z,22.99
2022-09-07T08:30:11.166Z,23.28
2022-09-07T08:32:42.999Z,23.46
2022-09-07T08:35:14.494Z,23.38
2022-09-07T08:37:46.319Z,23.65
2022-09-07T08:40:17.979Z,23.82
2022-09-07T08:42:52.170Z,24.09
2022-09-07T08:45:23.682Z,23.90
2022-09-07T08:47:55.548Z,24.10
2022-09-07T08:50:28.858Z,24.02
2022-09-07T08:53:00.683Z,24.26
2022-09-07T08:55:36.064Z,24.62
2022-09-07T08:58:18.095Z,24.84
2022-09-07T09:06:43.853Z,25.31
2022-09-07T09:09:15.835Z,25.31
2022-09-07T09:11:48.510Z,25.36
2022-09-07T09:14:20.145Z,25.57
2022-09-07T09:16:52.123Z,25.48
2022-09-07T09:19:23.607Z,25.76
2022-09-07T09:21:55.470Z,25.96
2022-09-07T09:24:26.965Z,26.16
2022-09-07T09:26:58.840Z,25.86
2022-09-07T09:29:30.351Z,26.29
2022-09-07T09:32:02.255Z,26.10
2022-09-07T09:34:35.186Z,25.86
2022-09-07T09:37:07.274Z,25.84
2022-09-07T09:39:39.940Z,25.73
2022-09-07T09:42:11.825Z,26.24
2022-09-07T09:44:43.488Z,26.36
2022-09-07T09:47:31.182Z,26.38
2022-09-07T09:50:03.144Z,26.79
2022-09-07T09:52:45.081Z,27.02
2022-09-07T09:55:35.939Z,26.65
2022-09-07T10:06:26.343Z,26.58
2022-09-07T10:08:57.942Z,26.29
2022-09-07T10:12:05.083Z,25.82
2022-09-07T10:14:21.267Z,26.15
2022-09-07T10:16:53.106Z,26.72
2022-09-07T10:19:24.652Z,26.51
2022-09-07T10:21:56.477Z,26.12
2022-09-07T10:24:28.179Z,26.13
2022-09-07T10:27:00.028Z,26.24
2022-09-07T10:29:31.576Z,26.26
2022-09-07T10:32:03.419Z,25.81
2022-09-07T10:34:34.906Z,26.05
2022-09-07T10:37:07.180Z,26.04
2022-09-07T10:39:38.711Z,26.13
2022-09-07T10:42:10.696Z,26.29
2022-09-07T10:44:42.284Z,26.13
2022-09-07T10:47:16.842Z,26.25
2022-09-07T10:52:40.328Z,26.67
2022-09-07T10:55:11.850Z,26.27
2022-09-07T10:57:48.273Z,26.14
2022-09-07T11:00:20.564Z,25.72
2022-09-07T11:05:43.981Z,26.27
2022-09-07T11:08:15.960Z,26.62
2022-09-07T11:10:47.511Z,26.85
2022-09-07T11:13:19.543Z,26.62
2022-09-07T11:15:51.094Z,26.76
2022-09-07T11:18:23.090Z,26.98
2022-09-07T11:20:58.768Z,27.16
2022-09-07T11:23:30.717Z,27.35
2022-09-07T11:26:02.442Z,27.41
2022-09-07T11:28:34.295Z,27.77
2022-09-07T11:31:05.809Z,27.79
2022-09-07T11:33:39.298Z,28.02
2022-09-07T11:36:12.365Z,27.37
2022-09-07T11:38:44.635Z,27.18
2022-09-07T11:41:16.131Z,26.54
2022-09-07T11:43:47.998Z,26.18
2022-09-07T11:46:19.587Z,26.35
2022-09-07T11:48:51.486Z,26.59
2022-09-07T11:51:23.457Z,26.63
2022-09-07T11:53:54.986Z,26.43
2022-09-07T11:56:26.762Z,26.85
2022-09-07T11:58:58.260Z,27.21
2022-09-07T12:01:30.240Z,27.86
2022-09-07T12:04:02.148Z,27.80
2022-09-07T12:06:34.164Z,28.07
2022-09-07T12:09:05.661Z,28.27
2022-09-07T12:11:37.622Z,28.58
2022-09-07T12:14:09.177Z,28.90
2022-09-07T12:16:41.086Z,28.76
2022-09-07T12:19:12.846Z,28.61
2022-09-07T12:21:44.772Z,28.12
2022-09-07T12:24:16.258Z,28.08
2022-09-07T12:26:48.173Z,28.11
2022-09-07T12:29:19.994Z,27.86
2022-09-07T12:32:07.407Z,28.05
2022-09-07T12:34:43.259Z,28.09
2022-09-07T12:37:15.046Z,27.79
2022-09-07T12:39:46.635Z,27.87
2022-09-07T12:42:34.329Z,27.05
2022-09-07T12:45:08.397Z,27.29
2022-09-07T12:47:40.204Z,27.46
2022-09-07T12:50:11.757Z,27.22
2022-09-07T12:52:45.590Z,27.48
2022-09-07T12:55:27.854Z,27.59
2022-09-07T12:58:00.499Z,27.23
2022-09-07T13:00:31.989Z,27.21
2022-09-07T13:03:04.216Z,27.22
2022-09-07T13:05:35.915Z,27.19
2022-09-07T13:08:09.365Z,27.41
2022-09-07T13:10:41.092Z,27.23
2022-09-07T13:13:13.364Z,27.14
2022-09-07T13:15:45.379Z,27.00
2022-09-07T13:18:18.769Z,27.32
2022-09-07T13:20:50.643Z,27.15
2022-09-07T13:23:22.158Z,26.88
2022-09-07T13:25:53.977Z,27.12
2022-09-07T13:28:25.480Z,27.23
2022-09-07T13:30:57.436Z,27.35
2022-09-07T13:33:29.011Z,27.69
2022-09-07T13:36:00.927Z,27.73
2022-09-07T13:38:32.412Z,27.88
2022-09-07T13:41:04.374Z,28.52
2022-09-07T13:43:35.872Z,29.36
2022-09-07T13:46:07.874Z,30.10
2022-09-07T13:48:40.865Z,30.29
2022-09-07T13:51:13.676Z,30.33
2022-09-07T13:53:45.183Z,30.80
2022-09-07T13:56:17.102Z,30.39
2022-09-07T13:58:48.587Z,30.22
2022-09-07T14:01:20.509Z,28.71
2022-09-07T14:03:52.019Z,28.12
2022-09-07T14:06:25.827Z,28.03
2022-09-07T14:08:57.324Z,28.67
2022-09-07T14:11:29.013Z,28.65
2022-09-07T14:14:00.510Z,28.45
2022-09-07T14:16:32.578Z,28.10
2022-09-07T14:19:04.084Z,27.84
2022-09-07T14:21:36.026Z,27.98
2022-09-07T14:24:07.523Z,27.98
2022-09-07T14:26:39.490Z,27.69
2022-09-07T14:29:10.988Z,27.78
2022-09-07T14:31:42.843Z,27.73
2022-09-07T14:34:15.646Z,27.40
2022-09-07T14:36:47.144Z,27.60
2022-09-07T14:39:19.322Z,27.57
2022-09-07T14:41:51.087Z,27.36
2022-09-07T14:44:22.932Z,27.88
2022-09-07T14:46:56.832Z,27.90
2022-09-07T14:49:29.268Z,27.99
2022-09-07T14:52:01.860Z,28.06
2022-09-07T14:54:34.313Z,29.20
2022-09-07T14:57:05.868Z,29.80
2022-09-07T14:59:37.674Z,30.44
2022-09-07T15:02:09.183Z,30.93
2022-09-07T15:04:41.049Z,31.35
2022-09-07T15:07:12.537Z,31.51
2022-09-07T15:09:44.372Z,31.78
2022-09-07T15:12:15.858Z,31.99
2022-09-07T15:14:47.991Z,31.15
2022-09-07T15:20:11.463Z,30.06
2022-09-07T15:22:42.955Z,30.39
2022-09-07T15:25:15.064Z,30.12
2022-09-07T15:27:46.806Z,29.58
2022-09-07T15:30:18.642Z,29.08
2022-09-07T15:32:50.193Z,29.04
2022-09-07T15:35:22.161Z,28.60
2022-09-07T15:38:02.455Z,28.30
2022-09-07T15:40:36.224Z,27.85
2022-09-07T15:43:19.890Z,27.63
2022-09-07T15:45:53.189Z,27.45
2022-09-07T15:48:27.816Z,27.25
2022-09-07T15:50:59.811Z,27.23
2022-09-07T15:56:23.471Z,26.96
2022-09-07T15:58:54.965Z,26.79
2022-09-07T16:04:18.596Z,26.46
2022-09-07T16:06:50.193Z,26.42
2022-09-07T16:09:23.045Z,26.62
2022-09-07T16:11:54.782Z,26.41
2022-09-07T16:14:26.757Z,26.30
2022-09-07T16:19:50.088Z,26.12
2022-09-07T16:25:13.458Z,25.91
2022-09-07T16:27:44.962Z,25.83
2022-09-07T16:30:16.747Z,25.73
2022-09-07T16:32:50.749Z,25.58
2022-09-07T16:35:23.703Z,25.42
2022-09-07T16:40:48.475Z,24.72
2022-09-07T16:43:20.039Z,25.25
2022-09-07T16:46:07.075Z,25.21
2022-09-07T16:48:38.571Z,25.22
2022-09-07T16:51:10.369Z,25.19
2022-09-07T16:53:41.849Z,25.08
2022-09-07T16:56:13.806Z,25.08
2022-09-07T16:58:45.695Z,25.07
2022-09-07T17:01:17.338Z,25.04
2022-09-07T17:03:49.856Z,24.94
2022-09-07T17:06:21.432Z,24.85
2022-09-07T17:08:52.960Z,24.80
2022-09-07T17:11:24.508Z,24.79
2022-09-07T17:13:56.024Z,24.68
2022-09-07T17:16:27.623Z,24.36
2022-09-07T17:21:55.531Z,23.61
2022-09-07T17:24:31.908Z,23.19
2022-09-07T17:27:03.887Z,22.58
2022-09-07T17:29:38.709Z,22.45
2022-09-07T17:32:25.977Z,22.27
2022-09-07T17:34:58.414Z,21.92
2022-09-07T17:37:29.904Z,21.59
2022-09-07T17:40:05.270Z,21.47
2022-09-07T17:45:29.282Z,21.42
2022-09-07T17:48:00.831Z,21.41
2022-09-07T17:50:32.704Z,21.34
2022-09-07T17:53:04.485Z,21.22
2022-09-07T17:55:36.033Z,21.13
2022-09-07T17:58:08.013Z,21.13
2022-09-07T18:00:40.139Z,21.06
2022-09-07T18:03:13.278Z,21.04
2022-09-07T18:05:44.845Z,20.99
2022-09-07T18:08:16.698Z,20.97
2022-09-07T18:13:40.225Z,20.87
2022-09-07T18:16:11.981Z,20.84
2022-09-07T18:18:43.964Z,20.86
2022-09-07T18:21:15.447Z,20.88
2022-09-07T18:23:48.553Z,20.84
2022-09-07T18:26:20.329Z,20.88
2022-09-07T18:29:18.730Z,20.88
2022-09-07T18:31:43.393Z,20.90
2022-09-07T18:34:15.210Z,20.95
2022-09-07T18:36:46.758Z,20.97
2022-09-07T18:39:18.615Z,20.96
2022-09-07T18:41:50.120Z,21.01
2022-09-07T18:47:21.140Z,21.06
2022-09-07T18:49:55.047Z,21.11
2022-09-07T18:55:18.616Z,21.22
2022-09-07T18:57:50.419Z,21.23
2022-09-07T19:00:21.940Z,21.25
2022-09-07T19:02:53.836Z,21.21
2022-09-07T19:08:17.484Z,21.19
2022-09-07T19:10:48.959Z,21.17
2022-09-07T19:13:20.780Z,19.95
2022-09-07T19:15:52.270Z,21.17
2022-09-07T19:18:24.117Z,21.17
2022-09-07T19:20:55.614Z,21.14
2022-09-07T19:23:27.670Z,21.14
2022-09-07T19:25:59.280Z,21.14
2022-09-07T19:28:31.299Z,21.13
2022-09-07T19:31:03.482Z,21.14
2022-09-07T19:33:38.292Z,21.15
2022-09-07T19:36:09.873Z,21.18
2022-09-07T19:38:41.765Z,21.21
2022-09-07T19:41:15.963Z,21.24
2022-09-07T19:43:47.504Z,21.24
2022-09-07T19:46:24.177Z,21.25
2022-09-07T19:48:56.859Z,21.20
2022-09-07T19:51:28.632Z,21.19
2022-09-07T19:54:00.428Z,21.16
2022-09-07T19:56:31.929Z,21.13
2022-09-07T19:59:03.781Z,21.04
2022-09-07T20:01:35.362Z,20.93
2022-09-07T20:04:06.977Z,21.05
2022-09-07T20:06:38.649Z,21.04
2022-09-07T20:09:10.519Z,20.99
2022-09-07T20:11:46.243Z,21.03
2022-09-07T20:14:19.403Z,21.01
2022-09-07T20:16:51.032Z,21.00
2022-09-07T20:19:22.837Z,18.32
2022-09-07T20:21:55.771Z,20.95
2022-09-07T20:24:27.662Z,20.85
2022-09-07T20:26:59.190Z,20.84
2022-09-07T20:29:31.877Z,20.78
2022-09-07T20:32:03.484Z,20.69
2022-09-07T20:34:35.396Z,20.65
2022-09-07T20:37:06.950Z,20.59
2022-09-07T20:39:39.500Z,20.55
2022-09-07T20:42:11.283Z,20.50
2022-09-07T20:44:42.857Z,20.42
2022-09-07T20:47:14.371Z,20.39
2022-09-07T20:49:46.177Z,20.32
2022-09-07T20:52:17.723Z,20.30
2022-09-07T20:54:49.254Z,20.29
2022-09-07T20:57:20.770Z,20.25
2022-09-07T20:59:52.939Z,20.25
2022-09-07T21:02:24.532Z,20.19
2022-09-07T21:04:56.494Z,20.14
2022-09-07T21:07:27.987Z,20.09
2022-09-07T21:10:02.297Z,20.05
2022-09-07T21:12:37.503Z,18.73
2022-09-07T21:15:09.098Z,19.89
2022-09-07T21:17:40.596Z,19.80
2022-09-07T21:20:12.200Z,19.71
2022-09-07T21:22:43.721Z,19.69
2022-09-07T21:25:15.508Z,19.64
2022-09-07T21:27:47.359Z,19.60
2022-09-07T21:30:18.888Z,19.56
2022-09-07T21:32:51.059Z,19.49
2022-09-07T21:35:22.763Z,19.45
2022-09-07T21:37:54.253Z,19.40
2022-09-07T21:40:26.108Z,19.34
2022-09-07T21:42:57.970Z,19.28
2022-09-07T21:45:29.532Z,19.29
2022-09-07T21:48:01.381Z,19.23
2022-09-07T21:50:32.930Z,19.22
2022-09-07T21:53:04.822Z,19.17
2022-09-07T21:55:36.323Z,19.12
2022-09-07T21:58:08.194Z,19.13
2022-09-07T22:00:39.709Z,19.07
2022-09-07T22:03:11.573Z,19.02
2022-09-07T22:05:43.092Z,18.98
2022-09-07T22:08:14.656Z,18.90
2022-09-07T22:10:46.538Z,18.92
2022-09-07T22:13:18.375Z,18.86
2022-09-07T22:15:49.917Z,18.87
2022-09-07T22:18:21.857Z,18.80
2022-09-07T22:20:53.603Z,18.78
2022-09-07T22:23:25.409Z,18.72
2022-09-07T22:25:56.927Z,18.68
2022-09-07T22:28:28.854Z,18.65
2022-09-07T22:31:00.383Z,18.64
2022-09-07T22:33:32.530Z,18.58
2022-09-07T22:36:05.272Z,18.56
2022-09-07T22:38:38.552Z,18.56
2022-09-07T22:41:10.053Z,18.52
2022-09-07T22:43:43.030Z,18.48
2022-09-07T22:46:14.818Z,18.49
2022-09-07T22:48:46.811Z,18.42
2022-09-07T22:51:18.301Z,18.31
2022-09-07T22:53:50.112Z,18.33
2022-09-07T22:56:21.772Z,18.29
2022-09-07T22:58:53.605Z,18.22
2022-09-07T23:01:25.084Z,18.22
2022-09-07T23:03:56.892Z,18.25
2022-09-07T23:06:28.458Z,18.25
2022-09-07T23:09:00.343Z,18.21
2022-09-07T23:11:31.885Z,18.21
2022-09-07T23:14:03.745Z,18.20
2022-09-07T23:16:35.331Z,18.21
2022-09-07T23:19:07.305Z,18.21
2022-09-07T23:21:38.909Z,18.20
2022-09-07T23:24:10.760Z,18.19
2022-09-07T23:26:42.292Z,18.18
2022-09-07T23:29:14.272Z,18.17
2022-09-07T23:31:46.573Z,18.16
2022-09-07T23:34:18.119Z,18.10
2022-09-07T23:36:49.648Z,18.10
2022-09-07T23:39:21.155Z,18.05
2022-09-07T23:41:52.954Z,18.08
2022-09-07T23:44:24.442Z,18.04
2022-09-07T23:46:56.255Z,18.02
2022-09-07T23:49:27.807Z,18.03
2022-09-07T23:51:59.675Z,17.97
2022-09-07T23:54:31.232Z,17.94
2022-09-07T23:57:03.048Z,17.87
2022-09-07T23:59:34.524Z,17.87
